Time;durP1;ratioP1;P1;durP2;ratioP2;P2;SDS_P1;SDS_P2;PMS_P1;PMS_P2;Temp;Humidity;BMP_temperature;BMP_pressure;BME280_temperature;BME280_humidity;BME280_pressure;Samples;Min_cycle;Max_cycle;Signal;HPM_P1;HPM_P2
2024/01/13 00:01:47;;;;;;;9.80;5.87;;;;;;;;;;5097232;28;20254;-28
2024/01/13 00:04:12;;;;;;;10.90;5.60;;;;;;;;;;5096950;28;20329;-27
2024/01/13 00:06:38;;;;;;;8.80;5.38;;;;;;;;;;5096359;28;20357;-28
2024/01/13 00:09:03;;;;;;;12.80;5.72;;;;;;;;;;5097144;28;20027;-27
2024/01/13 00:11:28;;;;;;;9.57;5.60;;;;;;;;;;5096707;28;20016;-27
2024/01/13 00:13:53;;;;;;;11.38;5.60;;;;;;;;;;5096547;28;20378;-27
2024/01/13 00:16:19;;;;;;;10.13;5.30;;;;;;;;;;5096938;28;20016;-28
2024/01/13 00:18:44;;;;;;;16.23;5.90;;;;;;;;;;5096440;28;20022;-28
2024/01/13 00:21:09;;;;;;;9.43;5.63;;;;;;;;;;5096336;28;20020;-27
2024/01/13 00:23:34;;;;;;;11.50;6.32;;;;;;;;;;5096619;28;20323;-28
2024/01/13 00:26:00;;;;;;;13.47;6.03;;;;;;;;;;5096519;28;20024;-28
2024/01/13 00:28:25;;;;;;;10.32;5.72;;;;;;;;;;5096262;28;20659;-27
2024/01/13 00:30:50;;;;;;;10.23;5.87;;;;;;;;;;5096160;28;20077;-28
2024/01/13 00:33:15;;;;;;;11.40;6.03;;;;;;;;;;5096160;28;20254;-27
2024/01/13 00:35:40;;;;;;;14.43;6.13;;;;;;;;;;5096072;28;20079;-28
2024/01/13 00:38:05;;;;;;;8.63;5.90;;;;;;;;;;5096023;28;20297;-28
2024/01/13 00:40:31;;;;;;;10.80;6.18;;;;;;;;;;5096286;28;20827;-27
2024/01/13 00:42:56;;;;;;;13.27;6.40;;;;;;;;;;5095907;28;20013;-28
2024/01/13 00:45:21;;;;;;;9.87;6.60;;;;;;;;;;5096495;28;20251;-28
2024/01/13 00:47:46;;;;;;;11.63;6.73;;;;;;;;;;5095358;28;20269;-27
2024/01/13 00:50:11;;;;;;;10.87;6.73;;;;;;;;;;5096392;28;20246;-28
2024/01/13 00:52:36;;;;;;;12.77;6.78;;;;;;;;;;5096306;28;20254;-27
2024/01/13 00:55:02;;;;;;;10.60;6.77;;;;;;;;;;5096235;28;20031;-28
2024/01/13 00:57:27;;;;;;;11.10;6.95;;;;;;;;;;5096179;28;20333;-27
2024/01/13 00:59:52;;;;;;;11.32;7.50;;;;;;;;;;5095934;28;20069;-27
2024/01/13 01:02:17;;;;;;;13.90;6.80;;;;;;;;;;5096143;28;20055;-27
2024/01/13 01:04:42;;;;;;;10.30;7.03;;;;;;;;;;5095808;28;20744;-28
2024/01/13 01:07:07;;;;;;;14.82;7.45;;;;;;;;;;5095417;28;20513;-27
2024/01/13 01:09:33;;;;;;;13.93;7.30;;;;;;;;;;5095451;28;20020;-28
2024/01/13 01:11:58;;;;;;;13.50;6.97;;;;;;;;;;5095601;28;20020;-27
2024/01/13 01:14:23;;;;;;;11.57;7.33;;;;;;;;;;5095527;28;20295;-27
2024/01/13 01:16:48;;;;;;;12.23;7.90;;;;;;;;;;5095217;28;20265;-27
2024/01/13 01:19:13;;;;;;;11.52;7.47;;;;;;;;;;5095308;28;20055;-28
2024/01/13 01:21:39;;;;;;;14.23;8.18;;;;;;;;;;5077148;28;20459;-27
2024/01/13 01:24:04;;;;;;;11.17;7.97;;;;;;;;;;5095177;28;20178;-27
2024/01/13 01:26:29;;;;;;;12.75;8.48;;;;;;;;;;5095363;28;20265;-28
2024/01/13 01:28:54;;;;;;;15.13;9.10;;;;;;;;;;5095637;28;20073;-28
2024/01/13 01:31:19;;;;;;;17.27;9.27;;;;;;;;;;5095031;28;20375;-28
2024/01/13 01:33:44;;;;;;;14.30;8.77;;;;;;;;;;5095541;28;20254;-27
2024/01/13 01:36:10;;;;;;;14.45;8.93;;;;;;;;;;5095102;28;20312;-27
2024/01/13 01:38:36;;;;;;;15.15;9.85;;;;;;;;;;5095175;28;20023;-28
2024/01/13 01:41:01;;;;;;;14.57;9.00;;;;;;;;;;5094760;28;20017;-28
2024/01/13 01:43:26;;;;;;;14.73;9.60;;;;;;;;;;5094771;28;20016;-27
2024/01/13 01:45:51;;;;;;;17.23;9.80;;;;;;;;;;5095024;28;20020;-28
2024/01/13 01:48:17;;;;;;;15.75;9.52;;;;;;;;;;5094684;28;20319;-27
2024/01/13 01:50:42;;;;;;;14.32;9.93;;;;;;;;;;5094958;28;20023;-27
2024/01/13 01:53:08;;;;;;;17.08;9.98;;;;;;;;;;5094545;28;20505;-28
2024/01/13 01:55:33;;;;;;;16.60;9.75;;;;;;;;;;5094778;28;20142;-28
2024/01/13 01:57:59;;;;;;;14.52;9.70;;;;;;;;;;5093728;28;20489;-27
2024/01/13 02:00:25;;;;;;;14.68;9.55;;;;;;;;;;5076229;28;20020;-28
2024/01/13 02:02:51;;;;;;;14.30;9.05;;;;;;;;;;5094952;28;20091;-27
2024/01/13 02:05:16;;;;;;;13.23;9.10;;;;;;;;;;5094218;28;20463;-27
2024/01/13 02:07:42;;;;;;;15.60;9.25;;;;;;;;;;5094298;28;20020;-27
2024/01/13 02:10:07;;;;;;;14.95;9.32;;;;;;;;;;5094318;28;20024;-27
2024/01/13 02:12:33;;;;;;;14.15;8.73;;;;;;;;;;5094298;28;20023;-27
2024/01/13 02:14:58;;;;;;;15.13;9.77;;;;;;;;;;5094112;28;20020;-27
2024/01/13 02:17:23;;;;;;;15.65;9.30;;;;;;;;;;5094717;28;20031;-27
2024/01/13 02:19:48;;;;;;;18.40;9.67;;;;;;;;;;5094161;28;20145;-27
2024/01/13 02:22:13;;;;;;;14.43;9.50;;;;;;;;;;5094715;28;20249;-28
2024/01/13 02:24:39;;;;;;;13.98;9.30;;;;;;;;;;5094045;28;20262;-28
2024/01/13 02:27:04;;;;;;;15.53;9.50;;;;;;;;;;5093984;28;20020;-28
2024/01/13 02:29:29;;;;;;;16.17;8.98;;;;;;;;;;5093942;28;20337;-28
2024/01/13 02:31:54;;;;;;;16.80;8.98;;;;;;;;;;5093945;28;20024;-28
2024/01/13 02:34:20;;;;;;;15.07;9.23;;;;;;;;;;5094119;28;20020;-27
2024/01/13 02:36:45;;;;;;;15.57;9.17;;;;;;;;;;5094919;28;20020;-28
2024/01/13 02:39:10;;;;;;;16.97;9.90;;;;;;;;;;5094409;28;20253;-27
2024/01/13 02:41:35;;;;;;;16.57;9.47;;;;;;;;;;5093763;28;20337;-28
2024/01/13 02:44:00;;;;;;;14.90;9.53;;;;;;;;;;5094335;28;20303;-28
2024/01/13 02:46:25;;;;;;;17.20;8.93;;;;;;;;;;5093705;28;20736;-27
2024/01/13 02:48:52;;;;;;;18.58;8.88;;;;;;;;;;5093662;28;20291;-28
2024/01/13 02:51:18;;;;;;;15.85;8.90;;;;;;;;;;5093871;28;20482;-27
2024/01/13 02:53:43;;;;;;;14.73;9.45;;;;;;;;;;5093878;28;20012;-28
2024/01/13 02:56:09;;;;;;;13.60;8.80;;;;;;;;;;5093479;28;20031;-28
2024/01/13 02:58:34;;;;;;;15.50;8.97;;;;;;;;;;5093813;28;20239;-27
2024/01/13 03:00:59;;;;;;;14.88;9.13;;;;;;;;;;5075428;28;20740;-28
2024/01/13 03:03:24;;;;;;;15.07;9.18;;;;;;;;;;5093539;28;20443;-28
2024/01/13 03:05:49;;;;;;;13.80;9.02;;;;;;;;;;5093344;28;20530;-28
2024/01/13 03:08:15;;;;;;;14.37;8.90;;;;;;;;;;5093895;28;20118;-28
2024/01/13 03:10:40;;;;;;;14.53;9.43;;;;;;;;;;5096285;28;20258;-28
2024/01/13 03:13:05;;;;;;;16.20;9.40;;;;;;;;;;5097542;28;20254;-27
2024/01/13 03:15:31;;;;;;;15.30;9.13;;;;;;;;;;5097505;28;20059;-27
2024/01/13 03:17:56;;;;;;;15.63;9.50;;;;;;;;;;5097603;28;20463;-28
2024/01/13 03:20:22;;;;;;;14.47;8.87;;;;;;;;;;5098051;28;20016;-27
2024/01/13 03:22:47;;;;;;;15.07;8.85;;;;;;;;;;5097459;28;20601;-27
2024/01/13 03:25:12;;;;;;;15.65;8.90;;;;;;;;;;5080144;28;20039;-28
2024/01/13 03:27:37;;;;;;;15.13;9.95;;;;;;;;;;5097423;28;20023;-27
2024/01/13 03:30:03;;;;;;;15.47;9.20;;;;;;;;;;5097498;28;20016;-27
2024/01/13 03:32:28;;;;;;;17.02;9.80;;;;;;;;;;5098388;28;20250;-27
2024/01/13 03:34:53;;;;;;;15.68;9.30;;;;;;;;;;5097466;28;20030;-27
2024/01/13 03:37:19;;;;;;;16.33;9.57;;;;;;;;;;5097799;28;20095;-27
2024/01/13 03:39:44;;;;;;;16.87;9.83;;;;;;;;;;5097474;28;20428;-27
2024/01/13 03:42:09;;;;;;;16.33;9.48;;;;;;;;;;5097328;28;20829;-28
2024/01/13 03:44:34;;;;;;;16.83;9.43;;;;;;;;;;5097392;28;20532;-28
2024/01/13 03:46:59;;;;;;;16.98;9.63;;;;;;;;;;5097061;28;20466;-27
2024/01/13 03:49:25;;;;;;;17.60;9.37;;;;;;;;;;5096889;28;20020;-28
2024/01/13 03:51:50;;;;;;;17.60;10.13;;;;;;;;;;5097132;28;20298;-27
2024/01/13 03:54:15;;;;;;;16.03;9.57;;;;;;;;;;5096684;28;20311;-28
2024/01/13 03:56:40;;;;;;;18.90;10.50;;;;;;;;;;5097033;28;20273;-28
2024/01/13 03:59:06;;;;;;;17.07;9.57;;;;;;;;;;5096930;28;20095;-27
2024/01/13 04:01:32;;;;;;;16.10;9.25;;;;;;;;;;5096646;28;20269;-27
2024/01/13 04:03:57;;;;;;;17.33;9.50;;;;;;;;;;5097203;28;20012;-27
2024/01/13 04:06:22;;;;;;;18.53;8.87;;;;;;;;;;5096466;28;20852;-27
2024/01/13 04:08:47;;;;;;;16.33;8.88;;;;;;;;;;5096870;28;20269;-28
2024/01/13 04:11:12;;;;;;;16.92;9.13;;;;;;;;;;5096506;28;20371;-28
2024/01/13 04:13:38;;;;;;;14.43;8.67;;;;;;;;;;5097111;28;20046;-27
2024/01/13 04:16:03;;;;;;;13.77;7.47;;;;;;;;;;5096653;28;20278;-28
2024/01/13 04:18:28;;;;;;;13.27;7.32;;;;;;;;;;5096646;28;20016;-27
2024/01/13 04:20:54;;;;;;;12.73;7.10;;;;;;;;;;5095769;28;20500;-28
2024/01/13 04:23:19;;;;;;;14.68;7.63;;;;;;;;;;5096111;28;20250;-27
2024/01/13 04:25:44;;;;;;;13.63;6.97;;;;;;;;;;5096254;28;20024;-27
2024/01/13 04:28:09;;;;;;;11.30;6.97;;;;;;;;;;5096812;28;20293;-28
2024/01/13 04:30:35;;;;;;;11.98;6.60;;;;;;;;;;5096202;28;20273;-27
2024/01/13 04:33:00;;;;;;;12.50;6.35;;;;;;;;;;5078071;28;20020;-27
2024/01/13 04:35:26;;;;;;;10.80;5.85;;;;;;;;;;5096042;28;20035;-27
2024/01/13 04:37:51;;;;;;;11.65;5.80;;;;;;;;;;5096139;28;20008;-28
2024/01/13 04:40:16;;;;;;;9.60;4.95;;;;;;;;;;5096267;28;20042;-28
2024/01/13 04:42:41;;;;;;;10.00;5.10;;;;;;;;;;5096032;28;20065;-28
2024/01/13 04:45:07;;;;;;;12.50;5.13;;;;;;;;;;5096181;28;20250;-28
2024/01/13 04:47:32;;;;;;;10.13;5.05;;;;;;;;;;5096361;28;20428;-28
2024/01/13 04:49:57;;;;;;;11.38;5.50;;;;;;;;;;5095827;28;20039;-27
2024/01/13 04:52:23;;;;;;;11.67;4.50;;;;;;;;;;5096429;28;20027;-27
2024/01/13 04:54:48;;;;;;;9.52;4.60;;;;;;;;;;5095646;28;20278;-28
2024/01/13 04:57:13;;;;;;;9.77;5.00;;;;;;;;;;5096049;28;20017;-28
2024/01/13 04:59:38;;;;;;;8.90;4.43;;;;;;;;;;5096222;28;20413;-27
2024/01/13 05:02:03;;;;;;;9.47;4.57;;;;;;;;;;5095534;28;20509;-28
2024/01/13 05:04:28;;;;;;;10.68;4.20;;;;;;;;;;5095781;28;20247;-28
2024/01/13 05:06:54;;;;;;;5.93;3.53;;;;;;;;;;5095419;28;20040;-27
2024/01/13 05:09:19;;;;;;;8.35;3.67;;;;;;;;;;5095692;28;20303;-28
2024/01/13 05:11:45;;;;;;;9.90;3.50;;;;;;;;;;5095397;28;20459;-27
2024/01/13 05:14:10;;;;;;;9.53;3.60;;;;;;;;;;5095275;28;20468;-28
2024/01/13 05:16:35;;;;;;;8.80;3.47;;;;;;;;;;5095525;28;20381;-28
2024/01/13 05:19:00;;;;;;;5.00;2.88;;;;;;;;;;5095549;28;20724;-28
2024/01/13 05:21:25;;;;;;;6.43;2.67;;;;;;;;;;5095241;28;20534;-27
2024/01/13 05:23:50;;;;;;;4.93;2.70;;;;;;;;;;5095186;28;20254;-28
2024/01/13 05:26:16;;;;;;;7.40;2.53;;;;;;;;;;5095108;28;20337;-27
2024/01/13 05:28:41;;;;;;;5.35;2.25;;;;;;;;;;5095385;28;20258;-28
2024/01/13 05:31:06;;;;;;;4.97;2.50;;;;;;;;;;5095657;28;20020;-28
2024/01/13 05:33:31;;;;;;;7.60;2.53;;;;;;;;;;5094977;28;20374;-28
2024/01/13 05:35:57;;;;;;;4.83;2.57;;;;;;;;;;5094934;28;20020;-28
2024/01/13 05:38:22;;;;;;;5.15;2.70;;;;;;;;;;5095436;28;20349;-27
2024/01/13 05:40:47;;;;;;;5.10;1.77;;;;;;;;;;5095404;28;20012;-28
2024/01/13 05:43:13;;;;;;;5.03;2.10;;;;;;;;;;5094688;28;20255;-28
2024/01/13 05:45:38;;;;;;;8.02;2.50;;;;;;;;;;5094780;28;20439;-28
2024/01/13 05:48:03;;;;;;;4.80;2.05;;;;;;;;;;5094734;28;20024;-28
2024/01/13 05:50:28;;;;;;;6.93;2.20;;;;;;;;;;5095176;28;20028;-28
2024/01/13 05:52:53;;;;;;;4.90;2.40;;;;;;;;;;5094909;28;20467;-28
2024/01/13 05:55:19;;;;;;;4.03;1.90;;;;;;;;;;5095024;28;20016;-28
2024/01/13 05:57:44;;;;;;;3.83;1.95;;;;;;;;;;5094576;28;20329;-28
2024/01/13 06:00:09;;;;;;;3.33;1.88;;;;;;;;;;5095022;28;20012;-28
2024/01/13 06:02:35;;;;;;;3.30;1.88;;;;;;;;;;5094991;28;20124;-29
2024/01/13 06:05:00;;;;;;;5.47;2.00;;;;;;;;;;5094316;28;20467;-27
2024/01/13 06:07:26;;;;;;;4.00;2.00;;;;;;;;;;5094126;28;20093;-27
2024/01/13 06:09:51;;;;;;;5.72;1.92;;;;;;;;;;5094307;28;20123;-27
2024/01/13 06:12:17;;;;;;;3.53;1.80;;;;;;;;;;5094149;28;20034;-28
2024/01/13 06:14:42;;;;;;;2.60;1.70;;;;;;;;;;5094722;28;20040;-28
2024/01/13 06:17:08;;;;;;;5.38;1.95;;;;;;;;;;5094448;28;20019;-28
2024/01/13 06:19:33;;;;;;;7.05;1.98;;;;;;;;;;5094383;28;20425;-28
2024/01/13 06:21:58;;;;;;;6.80;2.40;;;;;;;;;;5093988;28;20023;-28
2024/01/13 06:24:23;;;;;;;5.07;2.30;;;;;;;;;;5094601;28;20096;-28
2024/01/13 06:26:49;;;;;;;4.87;2.33;;;;;;;;;;5094045;28;20246;-28
2024/01/13 06:29:15;;;;;;;5.97;3.10;;;;;;;;;;5094185;28;20285;-27
2024/01/13 06:31:40;;;;;;;8.40;3.75;;;;;;;;;;5093762;28;20593;-28
2024/01/13 06:34:05;;;;;;;14.10;4.67;;;;;;;;;;5094448;28;20020;-27
2024/01/13 06:36:31;;;;;;;12.70;5.25;;;;;;;;;;5093974;28;20822;-28
2024/01/13 06:38:56;;;;;;;14.33;5.40;;;;;;;;;;5093794;28;20020;-28
2024/01/13 06:41:21;;;;;;;10.17;5.30;;;;;;;;;;5094283;28;20248;-28
2024/01/13 06:43:46;;;;;;;13.93;5.47;;;;;;;;;;5094125;28;20246;-28
2024/01/13 06:46:11;;;;;;;11.50;5.10;;;;;;;;;;5093455;28;20272;-27
2024/01/13 06:48:37;;;;;;;10.13;4.82;;;;;;;;;;5093679;28;20725;-27
2024/01/13 06:51:02;;;;;;;10.75;5.28;;;;;;;;;;5093889;28;20024;-28
2024/01/13 06:53:27;;;;;;;11.50;5.50;;;;;;;;;;5093655;28;20016;-28
2024/01/13 06:55:52;;;;;;;13.25;5.28;;;;;;;;;;5093846;28;20020;-28
2024/01/13 06:58:17;;;;;;;10.43;5.33;;;;;;;;;;5094062;28;20077;-28
2024/01/13 07:00:43;;;;;;;10.98;5.00;;;;;;;;;;5093799;28;20352;-28
2024/01/13 07:03:08;;;;;;;11.75;4.90;;;;;;;;;;5093559;28;20447;-28
2024/01/13 07:05:33;;;;;;;12.87;5.17;;;;;;;;;;5094021;28;20104;-28
2024/01/13 07:08:00;;;;;;;11.35;5.10;;;;;;;;;;5093454;28;20254;-27
2024/01/13 07:10:25;;;;;;;12.15;4.65;;;;;;;;;;5093727;28;20036;-27
2024/01/13 07:12:51;;;;;;;9.82;4.38;;;;;;;;;;5093315;28;20352;-27
2024/01/13 07:15:16;;;;;;;10.60;4.10;;;;;;;;;;5093332;28;20124;-28
2024/01/13 07:17:41;;;;;;;8.68;4.07;;;;;;;;;;5093709;28;20258;-28
2024/01/13 07:20:06;;;;;;;8.17;3.83;;;;;;;;;;5093930;28;20016;-28
2024/01/13 07:22:32;;;;;;;7.28;3.70;;;;;;;;;;5093118;28;20262;-28
2024/01/13 07:24:57;;;;;;;7.32;3.50;;;;;;;;;;5093507;28;20020;-28
2024/01/13 07:27:22;;;;;;;9.00;3.60;;;;;;;;;;5093229;28;20016;-27
2024/01/13 07:29:47;;;;;;;9.32;3.60;;;;;;;;;;5093804;28;20250;-28
2024/01/13 07:32:13;;;;;;;7.27;3.60;;;;;;;;;;5093795;28;20022;-27
2024/01/13 07:34:40;;;;;;;7.03;3.60;;;;;;;;;;5093042;28;20625;-28
2024/01/13 07:37:05;;;;;;;6.22;3.75;;;;;;;;;;5093750;28;20531;-28
2024/01/13 07:39:30;;;;;;;10.20;4.10;;;;;;;;;;5093197;28;20020;-28
2024/01/13 07:41:55;;;;;;;6.70;3.63;;;;;;;;;;5093736;28;20285;-28
2024/01/13 07:44:21;;;;;;;5.43;3.60;;;;;;;;;;5093391;28;20265;-28
2024/01/13 07:46:46;;;;;;;9.55;4.28;;;;;;;;;;5093075;28;20024;-28
2024/01/13 07:49:11;;;;;;;7.87;4.30;;;;;;;;;;5093241;28;20070;-28
2024/01/13 07:51:36;;;;;;;7.88;4.30;;;;;;;;;;5093030;28;20262;-28
2024/01/13 07:54:02;;;;;;;6.97;4.10;;;;;;;;;;5093220;28;20058;-28
2024/01/13 07:56:27;;;;;;;8.15;4.30;;;;;;;;;;5093616;28;20352;-28
2024/01/13 07:58:52;;;;;;;7.40;3.78;;;;;;;;;;5096856;28;20046;-28
2024/01/13 08:01:18;;;;;;;8.73;4.30;;;;;;;;;;5097303;28;20036;-28
2024/01/13 08:03:43;;;;;;;8.95;4.32;;;;;;;;;;5097003;28;20751;-28
2024/01/13 08:06:08;;;;;;;7.65;3.92;;;;;;;;;;5078380;28;20083;-28
2024/01/13 08:08:33;;;;;;;7.32;4.35;;;;;;;;;;5096887;28;20059;-27
2024/01/13 08:10:59;;;;;;;8.55;4.00;;;;;;;;;;5096543;28;20436;-28
2024/01/13 08:13:24;;;;;;;7.37;3.83;;;;;;;;;;5096521;28;20514;-28
2024/01/13 08:15:49;;;;;;;11.02;4.30;;;;;;;;;;5096961;28;20274;-28
2024/01/13 08:18:14;;;;;;;10.05;4.88;;;;;;;;;;5096730;28;20019;-28
2024/01/13 08:20:40;;;;;;;9.07;5.20;;;;;;;;;;5096256;28;20027;-28
2024/01/13 08:23:05;;;;;;;7.95;4.80;;;;;;;;;;5096931;28;20059;-33
2024/01/13 08:25:30;;;;;;;10.95;4.97;;;;;;;;;;5096233;28;20481;-32
2024/01/13 08:27:55;;;;;;;7.13;4.72;;;;;;;;;;5096415;28;20026;-27
2024/01/13 08:30:21;;;;;;;8.43;4.85;;;;;;;;;;5096403;28;20414;-28
2024/01/13 08:32:46;;;;;;;7.30;4.18;;;;;;;;;;5096706;28;20032;-28
2024/01/13 08:35:11;;;;;;;9.83;4.50;;;;;;;;;;5096596;28;20043;-28
2024/01/13 08:37:36;;;;;;;7.55;4.45;;;;;;;;;;5077889;28;20313;-28
2024/01/13 08:40:04;;;;;;;10.40;5.00;;;;;;;;;;5096040;28;20077;-28
2024/01/13 08:42:30;;;;;;;10.60;4.80;;;;;;;;;;5096201;28;20048;-27
2024/01/13 08:44:55;;;;;;;13.90;4.80;;;;;;;;;;5096230;28;20459;-28
2024/01/13 08:47:20;;;;;;;12.38;4.95;;;;;;;;;;5095844;28;20406;-27
2024/01/13 08:49:45;;;;;;;9.20;5.28;;;;;;;;;;5095889;28;20027;-28
2024/01/13 08:52:10;;;;;;;9.65;5.28;;;;;;;;;;5095772;28;20016;-28
2024/01/13 08:54:36;;;;;;;17.05;5.63;;;;;;;;;;5095424;28;20082;-28
2024/01/13 08:57:02;;;;;;;11.23;5.20;;;;;;;;;;5095629;28;20088;-28
2024/01/13 08:59:27;;;;;;;9.80;5.10;;;;;;;;;;5095743;28;20020;-28
2024/01/13 09:01:52;;;;;;;15.63;5.40;;;;;;;;;;5096053;28;20020;-28
2024/01/13 09:04:18;;;;;;;11.27;5.80;;;;;;;;;;5095483;28;20673;-28
2024/01/13 09:06:44;;;;;;;12.52;5.63;;;;;;;;;;5095298;28;20805;-27
2024/01/13 09:09:09;;;;;;;10.70;5.32;;;;;;;;;;5095089;28;20055;-28
2024/01/13 09:11:35;;;;;;;9.75;5.40;;;;;;;;;;5095158;28;20063;-27
2024/01/13 09:14:00;;;;;;;12.25;5.47;;;;;;;;;;5095371;28;20027;-27
2024/01/13 09:16:25;;;;;;;9.98;5.45;;;;;;;;;;5076901;28;20363;-27
2024/01/13 09:18:50;;;;;;;10.05;5.40;;;;;;;;;;5093855;28;20395;-27
2024/01/13 09:21:16;;;;;;;10.00;5.68;;;;;;;;;;5093698;28;20029;-27
2024/01/13 09:23:41;;;;;;;10.30;5.80;;;;;;;;;;5075513;28;20017;-27
2024/01/13 09:26:07;;;;;;;13.25;5.93;;;;;;;;;;5076795;28;20032;-27
2024/01/13 09:28:33;;;;;;;17.08;7.22;;;;;;;;;;5095538;28;20027;-27
2024/01/13 09:30:58;;;;;;;14.38;6.32;;;;;;;;;;5095238;28;20020;-27
2024/01/13 09:33:24;;;;;;;14.27;7.17;;;;;;;;;;5095014;28;20463;-27
2024/01/13 09:35:49;;;;;;;16.80;7.97;;;;;;;;;;5076698;28;20290;-28
2024/01/13 09:38:14;;;;;;;13.55;7.90;;;;;;;;;;5094898;28;20008;-27
2024/01/13 09:40:41;;;;;;;15.17;7.63;;;;;;;;;;5095334;28;20051;-28
2024/01/13 09:43:06;;;;;;;15.50;8.95;;;;;;;;;;5094605;28;20309;-27
2024/01/13 09:45:31;;;;;;;18.63;9.07;;;;;;;;;;5076598;28;20028;-28
2024/01/13 09:47:57;;;;;;;21.15;10.27;;;;;;;;;;5095256;28;20293;-28
2024/01/13 09:50:22;;;;;;;22.95;11.02;;;;;;;;;;5076457;28;20023;-28
2024/01/13 09:52:48;;;;;;;21.17;11.45;;;;;;;;;;5095125;28;20016;-27
2024/01/13 09:55:14;;;;;;;27.02;12.18;;;;;;;;;;5094399;28;20534;-28
2024/01/13 09:57:40;;;;;;;23.15;12.98;;;;;;;;;;5094650;28;20017;-27
2024/01/13 10:00:06;;;;;;;24.67;12.98;;;;;;;;;;5094900;28;20367;-27
2024/01/13 10:02:32;;;;;;;25.80;13.43;;;;;;;;;;5094827;28;20027;-28
2024/01/13 10:04:57;;;;;;;28.88;13.98;;;;;;;;;;5095042;28;20012;-28
2024/01/13 10:07:22;;;;;;;33.43;15.07;;;;;;;;;;5094237;28;20055;-27
2024/01/13 10:09:47;;;;;;;25.45;13.77;;;;;;;;;;5094328;28;20252;-27
2024/01/13 10:12:12;;;;;;;28.80;14.18;;;;;;;;;;5094117;28;20019;-28
2024/01/13 10:14:38;;;;;;;28.70;14.63;;;;;;;;;;5093934;28;20025;-28
2024/01/13 10:17:04;;;;;;;31.35;14.70;;;;;;;;;;5094508;28;20016;-28
2024/01/13 10:19:33;;;;;;;31.35;14.70;;;;;;;;;;5094011;28;20408;-28
2024/01/13 10:21:58;;;;;;;32.38;15.20;;;;;;;;;;5094606;28;20048;-28
2024/01/13 10:24:24;;;;;;;31.27;15.52;;;;;;;;;;5094206;28;20435;-28
2024/01/13 10:26:49;;;;;;;29.13;14.35;;;;;;;;;;5094286;28;20028;-28
2024/01/13 10:29:14;;;;;;;27.80;14.45;;;;;;;;;;5094154;28;20020;-28
2024/01/13 10:31:39;;;;;;;29.08;15.38;;;;;;;;;;5093849;28;20019;-28
2024/01/13 10:34:11;;;;;;;33.17;15.43;;;;;;;;;;5094070;28;20024;-27
2024/01/13 10:36:36;;;;;;;33.72;15.52;;;;;;;;;;5094011;28;20459;-26
2024/01/13 10:39:01;;;;;;;30.50;15.80;;;;;;;;;;5093762;28;20019;-28
2024/01/13 10:41:28;;;;;;;30.40;15.97;;;;;;;;;;5093806;28;20286;-27
2024/01/13 10:43:55;;;;;;;34.17;16.98;;;;;;;;;;5094105;28;20246;-27
2024/01/13 10:46:25;;;;;;;35.58;16.92;;;;;;;;;;5093930;28;20042;-27
2024/01/13 10:48:53;;;;;;;37.35;17.40;;;;;;;;;;5075431;28;20016;-28
2024/01/13 10:51:35;;;;;;;35.40;18.05;;;;;;;;;;5094215;28;20020;-27
2024/01/13 10:54:01;;;;;;;35.05;17.13;;;;;;;;;;5093650;28;20024;-27
2024/01/13 10:56:30;;;;;;;38.88;18.02;;;;;;;;;;5093923;28;20027;-27
2024/01/13 10:58:56;;;;;;;39.40;19.38;;;;;;;;;;5091571;28;20020;-27
2024/01/13 11:01:21;;;;;;;40.97;19.10;;;;;;;;;;5091486;28;20020;-27
2024/01/13 11:03:47;;;;;;;40.72;19.15;;;;;;;;;;5091880;28;20012;-27
2024/01/13 11:06:13;;;;;;;42.38;19.45;;;;;;;;;;5090764;28;20040;-27
2024/01/13 11:08:38;;;;;;;43.40;19.93;;;;;;;;;;5092421;28;20105;-27
2024/01/13 11:11:05;;;;;;;40.58;20.92;;;;;;;;;;5092315;28;20266;-27
2024/01/13 11:13:32;;;;;;;38.40;20.17;;;;;;;;;;5093047;28;20439;-27
2024/01/13 11:16:00;;;;;;;42.67;20.38;;;;;;;;;;5075203;28;20387;-28
2024/01/13 11:18:25;;;;;;;38.30;20.60;;;;;;;;;;5093336;28;20111;-27
2024/01/13 11:21:01;;;;;;;45.72;21.80;;;;;;;;;;5093934;28;20054;-27
2024/01/13 11:23:26;;;;;;;42.63;21.35;;;;;;;;;;5093601;28;20012;-27
2024/01/13 11:25:52;;;;;;;42.90;21.63;;;;;;;;;;5093018;28;20466;-27
2024/01/13 11:28:17;;;;;;;43.72;22.15;;;;;;;;;;5092740;28;20023;-27
2024/01/13 11:30:46;;;;;;;46.65;22.33;;;;;;;;;;5075638;28;20027;-27
2024/01/13 11:33:12;;;;;;;46.75;21.58;;;;;;;;;;5097181;28;20032;-28
2024/01/13 11:35:38;;;;;;;45.20;22.92;;;;;;;;;;5096855;28;20020;-27
2024/01/13 11:38:07;;;;;;;53.13;23.58;;;;;;;;;;5096516;28;20012;-28
2024/01/13 11:40:32;;;;;;;51.85;24.85;;;;;;;;;;5096383;28;20020;-28
2024/01/13 11:43:00;;;;;;;50.17;22.70;;;;;;;;;;5096799;28;20355;-28
2024/01/13 11:45:41;;;;;;;50.35;23.42;;;;;;;;;;5096964;28;20439;-29
2024/01/13 11:48:25;;;;;;;44.85;22.77;;;;;;;;;;5096826;28;20323;-28
2024/01/13 11:50:50;;;;;;;47.38;22.90;;;;;;;;;;5096593;28;20012;-28
2024/01/13 11:53:31;;;;;;;49.50;24.38;;;;;;;;;;5096406;28;20127;-28
2024/01/13 11:55:57;;;;;;;46.72;23.38;;;;;;;;;;5096350;28;20020;-28
2024/01/13 11:58:22;;;;;;;44.30;23.27;;;;;;;;;;5096569;28;20016;-28
2024/01/13 12:00:47;;;;;;;46.97;22.87;;;;;;;;;;5096471;28;20069;-28
2024/01/13 12:03:12;;;;;;;49.42;23.58;;;;;;;;;;5096566;28;20280;-27
2024/01/13 12:05:37;;;;;;;52.87;24.03;;;;;;;;;;5096139;28;20119;-27
2024/01/13 12:08:03;;;;;;;51.35;23.08;;;;;;;;;;5096658;28;20254;-27
2024/01/13 12:10:28;;;;;;;50.28;23.15;;;;;;;;;;5096878;28;20020;-29
2024/01/13 12:12:59;;;;;;;44.80;23.33;;;;;;;;;;5096546;28;20012;-28
2024/01/13 12:15:26;;;;;;;52.10;23.23;;;;;;;;;;5096369;28;20334;-28
2024/01/13 12:17:51;;;;;;;46.95;22.48;;;;;;;;;;5096635;28;20016;-27
2024/01/13 12:20:17;;;;;;;51.90;22.13;;;;;;;;;;5096355;28;20514;-27
2024/01/13 12:22:42;;;;;;;48.30;21.73;;;;;;;;;;5096605;28;20092;-27
2024/01/13 12:25:07;;;;;;;52.97;22.48;;;;;;;;;;5078536;28;20269;-27
2024/01/13 12:27:34;;;;;;;50.88;22.60;;;;;;;;;;5079187;28;20024;-28
2024/01/13 12:30:00;;;;;;;47.15;21.45;;;;;;;;;;5096475;28;20043;-28
2024/01/13 12:32:29;;;;;;;44.88;21.75;;;;;;;;;;5096525;28;20023;-28
2024/01/13 12:34:54;;;;;;;45.67;21.10;;;;;;;;;;5095186;28;20073;-28
2024/01/13 12:37:19;;;;;;;49.60;21.07;;;;;;;;;;5095941;28;20463;-28
2024/01/13 12:39:44;;;;;;;43.88;21.15;;;;;;;;;;5078322;28;20261;-27
2024/01/13 12:42:09;;;;;;;47.78;21.02;;;;;;;;;;5095203;28;20031;-28
2024/01/13 12:44:35;;;;;;;44.72;19.70;;;;;;;;;;5096188;28;20383;-28
2024/01/13 12:47:00;;;;;;;42.30;20.40;;;;;;;;;;5096233;28;20462;-28
2024/01/13 12:49:25;;;;;;;46.40;20.20;;;;;;;;;;5096476;28;20024;-29
2024/01/13 12:51:51;;;;;;;46.63;19.95;;;;;;;;;;5095083;28;20262;-28
2024/01/13 12:54:17;;;;;;;41.45;20.40;;;;;;;;;;5095800;28;20089;-28
2024/01/13 12:56:43;;;;;;;51.20;21.90;;;;;;;;;;5095683;28;20020;-28
2024/01/13 12:59:08;;;;;;;44.72;21.23;;;;;;;;;;5096234;28;20473;-28
2024/01/13 13:01:33;;;;;;;44.33;21.58;;;;;;;;;;5095668;28;20023;-28
2024/01/13 13:03:59;;;;;;;45.58;20.25;;;;;;;;;;5095469;28;20082;-28
2024/01/13 13:06:28;;;;;;;42.58;20.90;;;;;;;;;;5095380;28;20101;-28
2024/01/13 13:08:53;;;;;;;40.00;19.60;;;;;;;;;;5095657;28;20498;-29
2024/01/13 13:11:19;;;;;;;43.20;20.08;;;;;;;;;;5095309;28;20020;-28
2024/01/13 13:13:44;;;;;;;43.40;19.55;;;;;;;;;;5095386;28;20031;-28
2024/01/13 13:16:10;;;;;;;41.17;18.58;;;;;;;;;;5095301;28;20028;-28
2024/01/13 13:18:35;;;;;;;44.83;20.38;;;;;;;;;;5095312;28;20052;-28
2024/01/13 13:21:00;;;;;;;41.80;19.70;;;;;;;;;;5095432;28;20027;-28
2024/01/13 13:23:26;;;;;;;44.27;19.50;;;;;;;;;;5095262;28;20076;-28
2024/01/13 13:25:52;;;;;;;45.72;19.85;;;;;;;;;;5095228;28;20254;-27
2024/01/13 13:28:17;;;;;;;39.83;18.60;;;;;;;;;;5095598;28;20020;-27
2024/01/13 13:30:42;;;;;;;40.00;18.63;;;;;;;;;;5095542;28;20074;-28
2024/01/13 13:33:08;;;;;;;42.42;18.83;;;;;;;;;;5095175;28;20582;-27
2024/01/13 13:35:34;;;;;;;37.40;17.73;;;;;;;;;;5094903;28;20038;-28
2024/01/13 13:37:59;;;;;;;42.85;17.23;;;;;;;;;;5095072;28;20020;-28
2024/01/13 13:40:24;;;;;;;41.07;16.80;;;;;;;;;;5095172;28;20099;-28
2024/01/13 13:42:49;;;;;;;35.17;17.15;;;;;;;;;;5095067;28;20254;-28
2024/01/13 13:45:15;;;;;;;37.10;15.73;;;;;;;;;;5095117;28;20036;-28
2024/01/13 13:47:40;;;;;;;36.85;17.05;;;;;;;;;;5094981;28;20266;-28
2024/01/13 13:50:07;;;;;;;30.07;14.57;;;;;;;;;;5094720;28;20376;-28
2024/01/13 13:52:32;;;;;;;37.17;15.48;;;;;;;;;;5094847;28;20737;-28
2024/01/13 13:54:57;;;;;;;36.85;16.42;;;;;;;;;;5093473;28;20024;-28
2024/01/13 13:57:22;;;;;;;32.70;15.17;;;;;;;;;;5094569;28;20016;-29
2024/01/13 13:59:47;;;;;;;36.03;15.33;;;;;;;;;;5094832;28;20307;-28
2024/01/13 14:02:14;;;;;;;32.50;15.65;;;;;;;;;;5095044;28;20333;-27
2024/01/13 14:04:39;;;;;;;32.65;15.20;;;;;;;;;;5094673;28;20434;-28
2024/01/13 14:07:05;;;;;;;32.25;15.70;;;;;;;;;;5094285;28;20225;-28
2024/01/13 14:09:30;;;;;;;32.97;15.00;;;;;;;;;;5094536;28;20016;-28
2024/01/13 14:11:55;;;;;;;33.30;15.73;;;;;;;;;;5094247;28;20520;-28
2024/01/13 14:14:20;;;;;;;31.73;14.68;;;;;;;;;;5094442;28;20262;-28
2024/01/13 14:16:45;;;;;;;38.27;16.50;;;;;;;;;;5094113;28;20087;-28
2024/01/13 14:19:11;;;;;;;33.25;15.65;;;;;;;;;;5094092;28;20307;-28